Mavisdale, Virginia
Current Conditions -  °F | °C
As of 12:15 AM on Friday 31 Oct 2014 (Local Time) from KJFZ Reporting Station
Clear Clear  
Wind Chill: 41°   Ceiling: Unl
Heat Index: 41°   Visibility: 10mi
Dew Point: 35°   Wind: 3mph
Humidity: 80%   Direction: 30°NNE
Pressure: 30.01"   Gusts: NA
Location:  37.2°N, 82.01°W
Report Text: KJFZ 310415Z AUTO 03003KT 10SM CLR 05/02 A3001 RMK AO2 T00480017
Loading
Personal Weather Stations






























Interactive Weather Map
Tropical Storm Tracking
New forecast layout! Learn more

10-Day Weather Forecast

Advertisements
Track Severe Weather on mobile